Cape Coral, Florida
Current Conditions -  °F | °C
As of 4:53 PM on Friday 24 Oct 2014 (Local Time) from KFMY Reporting Station
Broken Clouds Broken Clouds  
Wind Chill: 82°   Ceiling: 5500
Heat Index: 83°   Visibility: 10mi
Dew Point: 61°   Wind: 12mph
Humidity: 49%   Direction: 50°NE
Pressure: 29.84"   Gusts: NA
Location:  26.63°N, 81.96°W
Report Text: KFMY 242053Z 05010KT 10SM BKN055 28/16 A2984 RMK AO2 SLP106 T02780161 56013
Loading
Personal Weather Stations






























Interactive Weather Map
Tropical Storm Tracking
New forecast layout! Learn more

10-Day Weather Forecast

Advertisements
Track Severe Weather on mobile